sensor_id;sensor_type;location;lat;lon;timestamp;P1;durP1;ratioP1;P2;durP2;ratioP2
72920;SDS011;61064;51.654;5.476;2024-01-10T00:01:15;8.38;;;1.95;;
72920;SDS011;61064;51.654;5.476;2024-01-10T00:03:41;6.93;;;1.60;;
72920;SDS011;61064;51.654;5.476;2024-01-10T00:06:06;6.77;;;1.97;;
72920;SDS011;61064;51.654;5.476;2024-01-10T00:08:31;6.67;;;1.73;;
72920;SDS011;61064;51.654;5.476;2024-01-10T00:10:57;7.15;;;2.00;;
72920;SDS011;61064;51.654;5.476;2024-01-10T00:13:22;6.53;;;1.87;;
72920;SDS011;61064;51.654;5.476;2024-01-10T00:15:48;8.13;;;2.10;;
72920;SDS011;61064;51.654;5.476;2024-01-10T00:18:14;6.85;;;1.65;;
72920;SDS011;61064;51.654;5.476;2024-01-10T00:20:39;8.83;;;1.83;;
72920;SDS011;61064;51.654;5.476;2024-01-10T00:23:05;6.73;;;1.97;;
72920;SDS011;61064;51.654;5.476;2024-01-10T00:25:32;9.27;;;3.33;;
72920;SDS011;61064;51.654;5.476;2024-01-10T00:27:57;7.77;;;2.33;;
72920;SDS011;61064;51.654;5.476;2024-01-10T00:30:22;8.07;;;2.50;;
72920;SDS011;61064;51.654;5.476;2024-01-10T00:32:48;8.27;;;1.70;;
72920;SDS011;61064;51.654;5.476;2024-01-10T00:35:13;8.07;;;1.80;;
72920;SDS011;61064;51.654;5.476;2024-01-10T00:37:38;7.40;;;1.70;;
72920;SDS011;61064;51.654;5.476;2024-01-10T00:40:04;7.70;;;1.73;;
72920;SDS011;61064;51.654;5.476;2024-01-10T00:42:30;7.10;;;1.80;;
72920;SDS011;61064;51.654;5.476;2024-01-10T00:44:56;7.90;;;2.20;;
72920;SDS011;61064;51.654;5.476;2024-01-10T00:47:21;7.82;;;1.80;;
72920;SDS011;61064;51.654;5.476;2024-01-10T00:49:49;5.40;;;1.73;;
72920;SDS011;61064;51.654;5.476;2024-01-10T00:52:15;6.57;;;1.80;;
72920;SDS011;61064;51.654;5.476;2024-01-10T00:54:40;6.53;;;1.67;;
72920;SDS011;61064;51.654;5.476;2024-01-10T00:57:06;7.13;;;2.00;;
72920;SDS011;61064;51.654;5.476;2024-01-10T00:59:31;7.67;;;1.80;;
72920;SDS011;61064;51.654;5.476;2024-01-10T01:01:56;8.40;;;2.27;;
72920;SDS011;61064;51.654;5.476;2024-01-10T01:04:22;6.97;;;1.70;;
72920;SDS011;61064;51.654;5.476;2024-01-10T01:06:47;11.10;;;2.47;;
72920;SDS011;61064;51.654;5.476;2024-01-10T01:09:12;7.87;;;1.90;;
72920;SDS011;61064;51.654;5.476;2024-01-10T01:11:40;7.80;;;2.22;;
72920;SDS011;61064;51.654;5.476;2024-01-10T01:14:08;7.93;;;2.25;;
72920;SDS011;61064;51.654;5.476;2024-01-10T01:16:34;7.40;;;2.08;;
72920;SDS011;61064;51.654;5.476;2024-01-10T01:18:59;6.73;;;2.00;;
72920;SDS011;61064;51.654;5.476;2024-01-10T01:21:24;7.83;;;2.20;;
72920;SDS011;61064;51.654;5.476;2024-01-10T01:23:50;9.63;;;2.63;;
72920;SDS011;61064;51.654;5.476;2024-01-10T01:26:15;8.73;;;2.73;;
72920;SDS011;61064;51.654;5.476;2024-01-10T01:28:40;8.10;;;1.85;;
72920;SDS011;61064;51.654;5.476;2024-01-10T01:31:06;7.85;;;2.28;;
72920;SDS011;61064;51.654;5.476;2024-01-10T01:33:31;7.97;;;2.23;;
72920;SDS011;61064;51.654;5.476;2024-01-10T01:35:57;11.70;;;2.23;;
72920;SDS011;61064;51.654;5.476;2024-01-10T01:38:23;8.70;;;2.40;;
72920;SDS011;61064;51.654;5.476;2024-01-10T01:40:48;7.10;;;2.03;;
72920;SDS011;61064;51.654;5.476;2024-01-10T01:43:25;6.90;;;2.00;;
72920;SDS011;61064;51.654;5.476;2024-01-10T01:45:52;9.32;;;2.35;;
72920;SDS011;61064;51.654;5.476;2024-01-10T01:48:22;8.57;;;2.58;;
72920;SDS011;61064;51.654;5.476;2024-01-10T01:50:49;8.70;;;2.00;;
72920;SDS011;61064;51.654;5.476;2024-01-10T01:53:17;8.27;;;2.40;;
72920;SDS011;61064;51.654;5.476;2024-01-10T01:55:44;8.13;;;2.30;;
72920;SDS011;61064;51.654;5.476;2024-01-10T01:58:10;7.25;;;2.00;;
72920;SDS011;61064;51.654;5.476;2024-01-10T02:00:37;7.93;;;2.25;;
72920;SDS011;61064;51.654;5.476;2024-01-10T02:03:04;7.90;;;2.07;;
72920;SDS011;61064;51.654;5.476;2024-01-10T02:05:31;7.30;;;1.95;;
72920;SDS011;61064;51.654;5.476;2024-01-10T02:07:57;8.23;;;2.20;;
72920;SDS011;61064;51.654;5.476;2024-01-10T02:10:22;6.50;;;2.00;;
72920;SDS011;61064;51.654;5.476;2024-01-10T02:12:48;9.67;;;2.40;;
72920;SDS011;61064;51.654;5.476;2024-01-10T02:15:14;7.70;;;2.10;;
72920;SDS011;61064;51.654;5.476;2024-01-10T02:17:43;7.83;;;2.00;;
72920;SDS011;61064;51.654;5.476;2024-01-10T02:20:09;7.38;;;1.90;;
72920;SDS011;61064;51.654;5.476;2024-01-10T02:22:35;6.90;;;1.80;;
72920;SDS011;61064;51.654;5.476;2024-01-10T02:25:01;7.57;;;2.10;;
72920;SDS011;61064;51.654;5.476;2024-01-10T02:27:27;7.85;;;1.83;;
72920;SDS011;61064;51.654;5.476;2024-01-10T02:29:53;7.38;;;1.90;;
72920;SDS011;61064;51.654;5.476;2024-01-10T02:32:20;7.68;;;1.98;;
72920;SDS011;61064;51.654;5.476;2024-01-10T02:34:45;6.55;;;1.83;;
72920;SDS011;61064;51.654;5.476;2024-01-10T02:37:11;7.13;;;2.13;;
72920;SDS011;61064;51.654;5.476;2024-01-10T02:39:36;7.53;;;2.00;;
72920;SDS011;61064;51.654;5.476;2024-01-10T02:42:01;6.60;;;1.90;;
72920;SDS011;61064;51.654;5.476;2024-01-10T02:44:27;8.03;;;1.97;;
72920;SDS011;61064;51.654;5.476;2024-01-10T02:46:53;7.32;;;2.10;;
72920;SDS011;61064;51.654;5.476;2024-01-10T02:49:18;7.27;;;1.97;;
72920;SDS011;61064;51.654;5.476;2024-01-10T02:51:44;6.78;;;1.90;;
72920;SDS011;61064;51.654;5.476;2024-01-10T02:54:10;6.68;;;1.90;;
72920;SDS011;61064;51.654;5.476;2024-01-10T02:56:35;7.27;;;1.93;;
72920;SDS011;61064;51.654;5.476;2024-01-10T02:59:01;7.00;;;1.83;;
72920;SDS011;61064;51.654;5.476;2024-01-10T03:01:26;7.30;;;1.83;;
72920;SDS011;61064;51.654;5.476;2024-01-10T03:03:54;7.23;;;1.90;;
72920;SDS011;61064;51.654;5.476;2024-01-10T03:06:20;6.70;;;1.92;;
72920;SDS011;61064;51.654;5.476;2024-01-10T03:08:45;8.23;;;2.10;;
72920;SDS011;61064;51.654;5.476;2024-01-10T03:11:11;7.00;;;2.17;;
72920;SDS011;61064;51.654;5.476;2024-01-10T03:13:36;9.48;;;2.00;;
72920;SDS011;61064;51.654;5.476;2024-01-10T03:16:02;8.27;;;2.30;;
72920;SDS011;61064;51.654;5.476;2024-01-10T03:18:28;7.32;;;1.88;;
72920;SDS011;61064;51.654;5.476;2024-01-10T03:20:53;7.80;;;2.10;;
72920;SDS011;61064;51.654;5.476;2024-01-10T03:23:19;7.33;;;1.80;;
72920;SDS011;61064;51.654;5.476;2024-01-10T03:25:44;7.97;;;1.90;;
72920;SDS011;61064;51.654;5.476;2024-01-10T03:28:10;6.80;;;2.00;;
72920;SDS011;61064;51.654;5.476;2024-01-10T03:30:35;7.90;;;1.97;;
72920;SDS011;61064;51.654;5.476;2024-01-10T03:33:01;7.87;;;2.33;;
72920;SDS011;61064;51.654;5.476;2024-01-10T03:35:26;8.57;;;1.70;;
72920;SDS011;61064;51.654;5.476;2024-01-10T03:37:51;8.40;;;2.10;;
72920;SDS011;61064;51.654;5.476;2024-01-10T03:40:17;10.23;;;2.27;;
72920;SDS011;61064;51.654;5.476;2024-01-10T03:42:42;8.65;;;2.22;;
72920;SDS011;61064;51.654;5.476;2024-01-10T03:45:07;7.93;;;2.13;;
72920;SDS011;61064;51.654;5.476;2024-01-10T03:47:33;6.87;;;1.83;;
72920;SDS011;61064;51.654;5.476;2024-01-10T03:49:58;7.40;;;2.00;;
72920;SDS011;61064;51.654;5.476;2024-01-10T03:52:23;6.67;;;1.80;;
72920;SDS011;61064;51.654;5.476;2024-01-10T03:54:49;7.20;;;2.10;;
72920;SDS011;61064;51.654;5.476;2024-01-10T03:57:14;7.85;;;1.90;;
72920;SDS011;61064;51.654;5.476;2024-01-10T03:59:39;10.17;;;2.60;;
72920;SDS011;61064;51.654;5.476;2024-01-10T04:02:07;8.35;;;2.15;;
72920;SDS011;61064;51.654;5.476;2024-01-10T04:04:32;7.38;;;1.90;;
72920;SDS011;61064;51.654;5.476;2024-01-10T04:07:01;7.93;;;2.13;;
72920;SDS011;61064;51.654;5.476;2024-01-10T04:09:26;7.00;;;1.70;;
72920;SDS011;61064;51.654;5.476;2024-01-10T04:11:52;8.68;;;2.05;;
72920;SDS011;61064;51.654;5.476;2024-01-10T04:14:17;9.47;;;2.40;;
72920;SDS011;61064;51.654;5.476;2024-01-10T04:16:42;8.57;;;2.23;;
72920;SDS011;61064;51.654;5.476;2024-01-10T04:19:08;8.63;;;2.10;;
72920;SDS011;61064;51.654;5.476;2024-01-10T04:21:33;8.60;;;2.00;;
72920;SDS011;61064;51.654;5.476;2024-01-10T04:23:59;6.43;;;1.83;;
72920;SDS011;61064;51.654;5.476;2024-01-10T04:26:24;8.47;;;2.00;;
72920;SDS011;61064;51.654;5.476;2024-01-10T04:28:50;7.50;;;2.13;;
72920;SDS011;61064;51.654;5.476;2024-01-10T04:31:18;7.55;;;2.00;;
72920;SDS011;61064;51.654;5.476;2024-01-10T04:33:46;8.50;;;2.05;;
72920;SDS011;61064;51.654;5.476;2024-01-10T04:36:11;7.60;;;2.13;;
72920;SDS011;61064;51.654;5.476;2024-01-10T04:38:37;7.70;;;1.90;;
72920;SDS011;61064;51.654;5.476;2024-01-10T04:41:02;7.83;;;2.30;;
72920;SDS011;61064;51.654;5.476;2024-01-10T04:43:27;7.73;;;2.00;;
72920;SDS011;61064;51.654;5.476;2024-01-10T04:45:53;7.80;;;2.27;;
72920;SDS011;61064;51.654;5.476;2024-01-10T04:48:18;5.75;;;1.70;;
72920;SDS011;61064;51.654;5.476;2024-01-10T04:50:43;7.67;;;2.20;;
72920;SDS011;61064;51.654;5.476;2024-01-10T04:53:09;8.33;;;2.00;;
72920;SDS011;61064;51.654;5.476;2024-01-10T04:55:34;7.27;;;2.03;;
72920;SDS011;61064;51.654;5.476;2024-01-10T04:58:00;8.57;;;2.22;;
72920;SDS011;61064;51.654;5.476;2024-01-10T05:00:25;9.73;;;2.08;;
72920;SDS011;61064;51.654;5.476;2024-01-10T05:02:51;7.47;;;1.90;;
72920;SDS011;61064;51.654;5.476;2024-01-10T05:05:17;7.47;;;1.90;;
72920;SDS011;61064;51.654;5.476;2024-01-10T05:07:48;8.30;;;2.50;;
72920;SDS011;61064;51.654;5.476;2024-01-10T05:10:13;8.30;;;2.20;;
72920;SDS011;61064;51.654;5.476;2024-01-10T05:12:39;7.45;;;1.80;;
72920;SDS011;61064;51.654;5.476;2024-01-10T05:15:04;8.70;;;2.10;;
72920;SDS011;61064;51.654;5.476;2024-01-10T05:17:30;7.43;;;1.83;;
72920;SDS011;61064;51.654;5.476;2024-01-10T05:19:56;7.70;;;2.35;;
72920;SDS011;61064;51.654;5.476;2024-01-10T05:22:21;6.57;;;2.37;;
72920;SDS011;61064;51.654;5.476;2024-01-10T05:24:47;7.15;;;2.20;;
72920;SDS011;61064;51.654;5.476;2024-01-10T05:27:12;8.90;;;2.10;;
72920;SDS011;61064;51.654;5.476;2024-01-10T05:29:38;6.53;;;1.77;;
72920;SDS011;61064;51.654;5.476;2024-01-10T05:32:03;8.07;;;1.90;;
72920;SDS011;61064;51.654;5.476;2024-01-10T05:34:29;6.75;;;1.90;;
72920;SDS011;61064;51.654;5.476;2024-01-10T05:36:54;8.70;;;2.13;;
72920;SDS011;61064;51.654;5.476;2024-01-10T05:39:20;7.13;;;2.17;;
72920;SDS011;61064;51.654;5.476;2024-01-10T05:41:46;8.07;;;1.88;;
72920;SDS011;61064;51.654;5.476;2024-01-10T05:44:15;8.37;;;2.10;;
72920;SDS011;61064;51.654;5.476;2024-01-10T05:46:40;8.90;;;2.00;;
72920;SDS011;61064;51.654;5.476;2024-01-10T05:49:07;8.13;;;2.30;;
72920;SDS011;61064;51.654;5.476;2024-01-10T05:51:33;9.02;;;2.63;;
72920;SDS011;61064;51.654;5.476;2024-01-10T05:53:59;7.83;;;2.33;;
72920;SDS011;61064;51.654;5.476;2024-01-10T05:56:24;8.47;;;2.00;;
72920;SDS011;61064;51.654;5.476;2024-01-10T05:58:49;8.33;;;2.20;;
72920;SDS011;61064;51.654;5.476;2024-01-10T06:01:16;7.63;;;2.10;;
72920;SDS011;61064;51.654;5.476;2024-01-10T06:03:42;9.25;;;2.20;;
72920;SDS011;61064;51.654;5.476;2024-01-10T06:06:07;9.27;;;2.33;;
72920;SDS011;61064;51.654;5.476;2024-01-10T06:08:32;7.80;;;2.40;;
72920;SDS011;61064;51.654;5.476;2024-01-10T06:10:58;8.07;;;2.30;;
72920;SDS011;61064;51.654;5.476;2024-01-10T06:13:23;9.53;;;2.53;;
72920;SDS011;61064;51.654;5.476;2024-01-10T06:15:48;8.07;;;1.90;;
72920;SDS011;61064;51.654;5.476;2024-01-10T06:18:14;7.13;;;2.00;;
72920;SDS011;61064;51.654;5.476;2024-01-10T06:20:39;6.70;;;1.88;;
72920;SDS011;61064;51.654;5.476;2024-01-10T06:23:04;9.53;;;2.30;;
72920;SDS011;61064;51.654;5.476;2024-01-10T06:25:30;10.07;;;2.60;;
72920;SDS011;61064;51.654;5.476;2024-01-10T06:27:56;8.40;;;2.30;;
72920;SDS011;61064;51.654;5.476;2024-01-10T06:30:21;7.47;;;2.00;;
72920;SDS011;61064;51.654;5.476;2024-01-10T06:32:46;8.77;;;2.13;;
72920;SDS011;61064;51.654;5.476;2024-01-10T06:35:12;17.35;;;5.80;;
72920;SDS011;61064;51.654;5.476;2024-01-10T06:37:38;12.82;;;3.42;;
72920;SDS011;61064;51.654;5.476;2024-01-10T06:40:03;8.73;;;2.43;;
72920;SDS011;61064;51.654;5.476;2024-01-10T06:42:30;8.75;;;2.53;;
72920;SDS011;61064;51.654;5.476;2024-01-10T06:44:56;8.27;;;2.37;;
72920;SDS011;61064;51.654;5.476;2024-01-10T06:47:21;7.73;;;2.30;;
72920;SDS011;61064;51.654;5.476;2024-01-10T06:49:46;7.77;;;2.30;;
72920;SDS011;61064;51.654;5.476;2024-01-10T06:52:12;15.13;;;2.95;;
72920;SDS011;61064;51.654;5.476;2024-01-10T06:54:38;10.20;;;3.20;;
72920;SDS011;61064;51.654;5.476;2024-01-10T06:57:03;8.20;;;2.30;;
72920;SDS011;61064;51.654;5.476;2024-01-10T06:59:29;8.27;;;2.58;;
72920;SDS011;61064;51.654;5.476;2024-01-10T07:01:54;8.40;;;2.70;;
72920;SDS011;61064;51.654;5.476;2024-01-10T07:04:22;10.38;;;3.00;;
72920;SDS011;61064;51.654;5.476;2024-01-10T07:06:49;11.10;;;2.80;;
72920;SDS011;61064;51.654;5.476;2024-01-10T07:09:15;10.20;;;2.57;;
72920;SDS011;61064;51.654;5.476;2024-01-10T07:11:47;10.82;;;2.88;;
72920;SDS011;61064;51.654;5.476;2024-01-10T07:14:13;9.68;;;2.63;;
72920;SDS011;61064;51.654;5.476;2024-01-10T07:16:39;9.35;;;2.63;;
72920;SDS011;61064;51.654;5.476;2024-01-10T07:19:08;10.57;;;2.60;;
72920;SDS011;61064;51.654;5.476;2024-01-10T07:21:34;7.00;;;2.27;;
72920;SDS011;61064;51.654;5.476;2024-01-10T07:23:59;10.60;;;3.00;;
72920;SDS011;61064;51.654;5.476;2024-01-10T07:26:24;9.40;;;2.70;;
72920;SDS011;61064;51.654;5.476;2024-01-10T07:28:52;8.90;;;3.10;;
72920;SDS011;61064;51.654;5.476;2024-01-10T07:31:18;8.50;;;2.50;;
72920;SDS011;61064;51.654;5.476;2024-01-10T07:33:43;11.20;;;3.03;;
72920;SDS011;61064;51.654;5.476;2024-01-10T07:36:08;10.03;;;3.00;;
72920;SDS011;61064;51.654;5.476;2024-01-10T07:38:34;12.03;;;3.93;;
72920;SDS011;61064;51.654;5.476;2024-01-10T07:40:59;11.17;;;3.07;;
72920;SDS011;61064;51.654;5.476;2024-01-10T07:43:25;9.40;;;2.90;;
72920;SDS011;61064;51.654;5.476;2024-01-10T07:45:52;28.88;;;3.10;;
72920;SDS011;61064;51.654;5.476;2024-01-10T07:48:18;9.85;;;2.95;;
72920;SDS011;61064;51.654;5.476;2024-01-10T07:50:43;10.02;;;2.95;;
72920;SDS011;61064;51.654;5.476;2024-01-10T07:53:09;7.93;;;2.25;;
72920;SDS011;61064;51.654;5.476;2024-01-10T07:55:35;11.32;;;2.90;;
72920;SDS011;61064;51.654;5.476;2024-01-10T07:58:00;8.65;;;2.67;;
72920;SDS011;61064;51.654;5.476;2024-01-10T08:00:26;9.97;;;2.63;;
72920;SDS011;61064;51.654;5.476;2024-01-10T08:02:54;9.73;;;2.80;;
72920;SDS011;61064;51.654;5.476;2024-01-10T08:05:23;9.23;;;2.75;;
72920;SDS011;61064;51.654;5.476;2024-01-10T08:07:48;10.35;;;3.05;;
72920;SDS011;61064;51.654;5.476;2024-01-10T08:10:14;9.03;;;2.80;;
72920;SDS011;61064;51.654;5.476;2024-01-10T08:12:43;9.13;;;3.00;;
72920;SDS011;61064;51.654;5.476;2024-01-10T08:15:11;15.90;;;2.90;;
72920;SDS011;61064;51.654;5.476;2024-01-10T08:17:37;10.27;;;2.90;;
72920;SDS011;61064;51.654;5.476;2024-01-10T08:20:03;10.83;;;2.83;;
72920;SDS011;61064;51.654;5.476;2024-01-10T08:22:33;9.32;;;2.90;;
72920;SDS011;61064;51.654;5.476;2024-01-10T08:24:58;9.95;;;3.10;;
72920;SDS011;61064;51.654;5.476;2024-01-10T08:27:24;8.38;;;2.50;;
72920;SDS011;61064;51.654;5.476;2024-01-10T08:29:49;10.60;;;3.13;;
72920;SDS011;61064;51.654;5.476;2024-01-10T08:32:15;10.90;;;3.53;;
72920;SDS011;61064;51.654;5.476;2024-01-10T08:34:42;10.93;;;4.43;;
72920;SDS011;61064;51.654;5.476;2024-01-10T08:37:09;9.13;;;2.97;;
72920;SDS011;61064;51.654;5.476;2024-01-10T08:39:35;9.60;;;2.90;;
72920;SDS011;61064;51.654;5.476;2024-01-10T08:42:00;10.23;;;3.10;;
72920;SDS011;61064;51.654;5.476;2024-01-10T08:44:26;9.67;;;2.67;;
72920;SDS011;61064;51.654;5.476;2024-01-10T08:46:51;10.77;;;3.10;;
72920;SDS011;61064;51.654;5.476;2024-01-10T08:49:17;8.95;;;2.80;;
72920;SDS011;61064;51.654;5.476;2024-01-10T08:51:43;15.48;;;3.25;;
72920;SDS011;61064;51.654;5.476;2024-01-10T08:54:09;12.93;;;3.42;;
72920;SDS011;61064;51.654;5.476;2024-01-10T08:56:37;9.00;;;2.85;;
72920;SDS011;61064;51.654;5.476;2024-01-10T08:59:03;9.73;;;2.97;;
72920;SDS011;61064;51.654;5.476;2024-01-10T09:01:29;9.63;;;2.70;;
72920;SDS011;61064;51.654;5.476;2024-01-10T09:03:54;9.50;;;3.33;;
72920;SDS011;61064;51.654;5.476;2024-01-10T09:06:19;11.03;;;3.63;;
72920;SDS011;61064;51.654;5.476;2024-01-10T09:08:51;10.98;;;3.08;;
72920;SDS011;61064;51.654;5.476;2024-01-10T09:11:16;10.57;;;3.03;;
72920;SDS011;61064;51.654;5.476;2024-01-10T09:13:42;12.57;;;3.50;;
72920;SDS011;61064;51.654;5.476;2024-01-10T09:16:07;9.43;;;2.97;;
72920;SDS011;61064;51.654;5.476;2024-01-10T09:18:32;12.23;;;4.10;;
72920;SDS011;61064;51.654;5.476;2024-01-10T09:20:58;11.65;;;3.67;;
72920;SDS011;61064;51.654;5.476;2024-01-10T09:23:23;11.33;;;3.43;;
72920;SDS011;61064;51.654;5.476;2024-01-10T09:25:49;10.53;;;3.60;;
72920;SDS011;61064;51.654;5.476;2024-01-10T09:28:14;11.37;;;3.40;;
72920;SDS011;61064;51.654;5.476;2024-01-10T09:30:39;11.07;;;3.73;;
72920;SDS011;61064;51.654;5.476;2024-01-10T09:33:05;11.90;;;3.53;;
72920;SDS011;61064;51.654;5.476;2024-01-10T09:35:30;12.03;;;3.87;;
72920;SDS011;61064;51.654;5.476;2024-01-10T09:37:56;10.60;;;3.50;;
72920;SDS011;61064;51.654;5.476;2024-01-10T09:40:21;11.93;;;3.40;;
72920;SDS011;61064;51.654;5.476;2024-01-10T09:42:50;9.33;;;3.40;;
72920;SDS011;61064;51.654;5.476;2024-01-10T09:45:19;11.77;;;3.97;;
72920;SDS011;61064;51.654;5.476;2024-01-10T09:47:46;10.93;;;3.53;;
72920;SDS011;61064;51.654;5.476;2024-01-10T09:50:14;10.13;;;3.67;;
72920;SDS011;61064;51.654;5.476;2024-01-10T09:52:41;12.77;;;4.15;;
72920;SDS011;61064;51.654;5.476;2024-01-10T09:55:15;12.75;;;3.70;;
72920;SDS011;61064;51.654;5.476;2024-01-10T09:57:41;11.50;;;3.85;;
72920;SDS011;61064;51.654;5.476;2024-01-10T10:00:08;10.90;;;3.77;;
72920;SDS011;61064;51.654;5.476;2024-01-10T10:02:35;14.13;;;3.97;;
72920;SDS011;61064;51.654;5.476;2024-01-10T10:05:03;11.48;;;4.68;;
72920;SDS011;61064;51.654;5.476;2024-01-10T10:07:50;13.05;;;3.67;;
72920;SDS011;61064;51.654;5.476;2024-01-10T10:10:18;10.88;;;3.53;;
72920;SDS011;61064;51.654;5.476;2024-01-10T10:12:49;12.87;;;4.13;;
72920;SDS011;61064;51.654;5.476;2024-01-10T10:15:22;13.30;;;4.47;;
72920;SDS011;61064;51.654;5.476;2024-01-10T10:17:49;11.27;;;4.00;;
72920;SDS011;61064;51.654;5.476;2024-01-10T10:20:22;14.57;;;4.53;;
72920;SDS011;61064;51.654;5.476;2024-01-10T10:25:30;15.77;;;3.77;;
72920;SDS011;61064;51.654;5.476;2024-01-10T10:28:00;14.48;;;3.88;;
72920;SDS011;61064;51.654;5.476;2024-01-10T10:30:27;14.25;;;4.78;;
72920;SDS011;61064;51.654;5.476;2024-01-10T10:32:53;15.05;;;4.70;;
72920;SDS011;61064;51.654;5.476;2024-01-10T10:35:20;14.05;;;4.30;;
72920;SDS011;61064;51.654;5.476;2024-01-10T10:37:47;12.70;;;4.10;;
72920;SDS011;61064;51.654;5.476;2024-01-10T10:40:16;14.43;;;4.05;;
72920;SDS011;61064;51.654;5.476;2024-01-10T10:42:46;13.77;;;4.68;;
72920;SDS011;61064;51.654;5.476;2024-01-10T10:45:20;13.68;;;4.53;;
72920;SDS011;61064;51.654;5.476;2024-01-10T10:47:50;12.13;;;3.80;;
72920;SDS011;61064;51.654;5.476;2024-01-10T10:50:23;11.67;;;4.07;;
72920;SDS011;61064;51.654;5.476;2024-01-10T10:52:49;13.10;;;4.70;;
72920;SDS011;61064;51.654;5.476;2024-01-10T10:55:16;12.80;;;4.15;;
72920;SDS011;61064;51.654;5.476;2024-01-10T10:57:46;12.60;;;4.60;;
72920;SDS011;61064;51.654;5.476;2024-01-10T11:00:13;12.40;;;4.15;;
72920;SDS011;61064;51.654;5.476;2024-01-10T11:02:43;14.77;;;3.90;;
72920;SDS011;61064;51.654;5.476;2024-01-10T11:05:10;11.77;;;3.92;;
72920;SDS011;61064;51.654;5.476;2024-01-10T11:07:36;12.82;;;4.40;;
72920;SDS011;61064;51.654;5.476;2024-01-10T11:10:08;13.45;;;5.10;;
72920;SDS011;61064;51.654;5.476;2024-01-10T11:18:54;12.73;;;4.05;;
72920;SDS011;61064;51.654;5.476;2024-01-10T11:21:47;14.65;;;4.38;;
72920;SDS011;61064;51.654;5.476;2024-01-10T11:24:23;15.80;;;4.57;;
72920;SDS011;61064;51.654;5.476;2024-01-10T11:26:49;14.60;;;4.70;;
72920;SDS011;61064;51.654;5.476;2024-01-10T11:29:15;15.40;;;4.80;;
72920;SDS011;61064;51.654;5.476;2024-01-10T11:31:40;14.17;;;4.77;;
72920;SDS011;61064;51.654;5.476;2024-01-10T11:34:06;17.27;;;5.27;;
72920;SDS011;61064;51.654;5.476;2024-01-10T11:36:33;15.68;;;5.10;;
72920;SDS011;61064;51.654;5.476;2024-01-10T11:38:59;15.53;;;4.97;;
72920;SDS011;61064;51.654;5.476;2024-01-10T11:41:32;15.80;;;5.13;;
72920;SDS011;61064;51.654;5.476;2024-01-10T11:46:34;13.82;;;5.05;;
72920;SDS011;61064;51.654;5.476;2024-01-10T11:49:02;14.55;;;4.80;;
72920;SDS011;61064;51.654;5.476;2024-01-10T11:51:28;14.98;;;4.68;;
72920;SDS011;61064;51.654;5.476;2024-01-10T11:53:54;14.32;;;5.05;;
72920;SDS011;61064;51.654;5.476;2024-01-10T11:56:22;12.95;;;4.85;;
72920;SDS011;61064;51.654;5.476;2024-01-10T12:01:22;12.55;;;4.63;;
72920;SDS011;61064;51.654;5.476;2024-01-10T12:03:49;13.60;;;5.00;;
72920;SDS011;61064;51.654;5.476;2024-01-10T12:06:17;12.02;;;4.88;;
72920;SDS011;61064;51.654;5.476;2024-01-10T12:08:43;13.80;;;4.97;;
72920;SDS011;61064;51.654;5.476;2024-01-10T12:11:08;13.77;;;4.60;;
72920;SDS011;61064;51.654;5.476;2024-01-10T12:13:34;12.43;;;4.13;;
72920;SDS011;61064;51.654;5.476;2024-01-10T12:15:59;12.50;;;4.37;;
72920;SDS011;61064;51.654;5.476;2024-01-10T12:18:25;16.10;;;5.47;;
72920;SDS011;61064;51.654;5.476;2024-01-10T12:20:51;12.93;;;4.73;;
72920;SDS011;61064;51.654;5.476;2024-01-10T12:23:16;19.53;;;5.27;;
72920;SDS011;61064;51.654;5.476;2024-01-10T12:25:42;13.88;;;5.13;;
72920;SDS011;61064;51.654;5.476;2024-01-10T12:28:07;15.20;;;5.33;;
72920;SDS011;61064;51.654;5.476;2024-01-10T12:30:33;14.70;;;4.80;;
72920;SDS011;61064;51.654;5.476;2024-01-10T12:32:59;15.10;;;5.30;;
72920;SDS011;61064;51.654;5.476;2024-01-10T12:35:25;13.60;;;5.00;;
72920;SDS011;61064;51.654;5.476;2024-01-10T12:37:54;14.97;;;4.80;;
72920;SDS011;61064;51.654;5.476;2024-01-10T12:40:23;11.98;;;4.80;;
72920;SDS011;61064;51.654;5.476;2024-01-10T12:42:48;14.90;;;5.17;;
72920;SDS011;61064;51.654;5.476;2024-01-10T12:45:20;16.77;;;5.20;;
72920;SDS011;61064;51.654;5.476;2024-01-10T12:47:47;13.63;;;5.10;;
72920;SDS011;61064;51.654;5.476;2024-01-10T12:50:12;15.05;;;4.93;;
72920;SDS011;61064;51.654;5.476;2024-01-10T12:52:38;15.37;;;5.63;;
72920;SDS011;61064;51.654;5.476;2024-01-10T12:55:07;13.38;;;4.85;;
72920;SDS011;61064;51.654;5.476;2024-01-10T12:57:33;13.20;;;4.93;;
72920;SDS011;61064;51.654;5.476;2024-01-10T12:59:58;13.37;;;4.97;;
72920;SDS011;61064;51.654;5.476;2024-01-10T13:02:23;13.67;;;5.47;;
72920;SDS011;61064;51.654;5.476;2024-01-10T13:04:48;15.67;;;5.50;;
72920;SDS011;61064;51.654;5.476;2024-01-10T13:07:14;12.90;;;5.10;;
72920;SDS011;61064;51.654;5.476;2024-01-10T13:09:40;14.18;;;4.97;;
72920;SDS011;61064;51.654;5.476;2024-01-10T13:12:06;13.93;;;5.40;;
72920;SDS011;61064;51.654;5.476;2024-01-10T13:14:33;14.93;;;5.35;;
72920;SDS011;61064;51.654;5.476;2024-01-10T13:16:58;15.50;;;5.60;;
72920;SDS011;61064;51.654;5.476;2024-01-10T13:19:24;13.83;;;5.47;;
72920;SDS011;61064;51.654;5.476;2024-01-10T13:21:49;14.93;;;5.57;;
72920;SDS011;61064;51.654;5.476;2024-01-10T13:24:14;15.67;;;5.30;;
72920;SDS011;61064;51.654;5.476;2024-01-10T13:26:40;15.50;;;5.60;;
72920;SDS011;61064;51.654;5.476;2024-01-10T13:29:05;14.23;;;4.97;;
72920;SDS011;61064;51.654;5.476;2024-01-10T13:31:30;16.27;;;5.27;;
72920;SDS011;61064;51.654;5.476;2024-01-10T13:33:59;14.00;;;4.70;;
72920;SDS011;61064;51.654;5.476;2024-01-10T13:36:24;14.07;;;5.10;;
72920;SDS011;61064;51.654;5.476;2024-01-10T13:38:49;14.70;;;5.32;;
72920;SDS011;61064;51.654;5.476;2024-01-10T13:41:15;13.50;;;4.97;;
72920;SDS011;61064;51.654;5.476;2024-01-10T13:43:40;15.13;;;4.97;;
72920;SDS011;61064;51.654;5.476;2024-01-10T13:46:05;13.00;;;5.10;;
72920;SDS011;61064;51.654;5.476;2024-01-10T13:48:31;12.23;;;4.63;;
72920;SDS011;61064;51.654;5.476;2024-01-10T13:50:56;13.23;;;5.37;;
72920;SDS011;61064;51.654;5.476;2024-01-10T13:53:21;13.80;;;5.13;;
72920;SDS011;61064;51.654;5.476;2024-01-10T13:55:47;17.48;;;5.78;;
72920;SDS011;61064;51.654;5.476;2024-01-10T13:58:12;14.47;;;5.30;;
72920;SDS011;61064;51.654;5.476;2024-01-10T14:00:41;14.23;;;5.20;;
72920;SDS011;61064;51.654;5.476;2024-01-10T14:03:06;18.60;;;6.43;;
72920;SDS011;61064;51.654;5.476;2024-01-10T14:05:31;14.40;;;5.47;;
72920;SDS011;61064;51.654;5.476;2024-01-10T14:07:56;15.80;;;5.40;;
72920;SDS011;61064;51.654;5.476;2024-01-10T14:10:22;16.10;;;6.40;;
72920;SDS011;61064;51.654;5.476;2024-01-10T14:12:47;16.43;;;5.73;;
72920;SDS011;61064;51.654;5.476;2024-01-10T14:15:13;18.08;;;6.55;;
72920;SDS011;61064;51.654;5.476;2024-01-10T14:17:39;16.37;;;6.00;;
72920;SDS011;61064;51.654;5.476;2024-01-10T14:20:05;13.48;;;5.47;;
72920;SDS011;61064;51.654;5.476;2024-01-10T14:22:34;14.95;;;5.50;;
72920;SDS011;61064;51.654;5.476;2024-01-10T14:25:00;16.20;;;5.77;;
72920;SDS011;61064;51.654;5.476;2024-01-10T14:27:25;16.88;;;5.70;;
72920;SDS011;61064;51.654;5.476;2024-01-10T14:29:51;16.53;;;5.60;;
72920;SDS011;61064;51.654;5.476;2024-01-10T14:32:16;13.23;;;5.33;;
72920;SDS011;61064;51.654;5.476;2024-01-10T14:34:41;16.57;;;5.47;;
72920;SDS011;61064;51.654;5.476;2024-01-10T14:37:07;14.37;;;5.07;;
72920;SDS011;61064;51.654;5.476;2024-01-10T14:39:36;15.18;;;5.57;;
72920;SDS011;61064;51.654;5.476;2024-01-10T14:42:05;13.23;;;5.10;;
72920;SDS011;61064;51.654;5.476;2024-01-10T14:44:32;15.00;;;5.70;;
72920;SDS011;61064;51.654;5.476;2024-01-10T14:46:58;14.00;;;5.10;;
72920;SDS011;61064;51.654;5.476;2024-01-10T14:49:27;17.10;;;5.70;;